sensor_id;sensor_type;location;lat;lon;timestamp;P1;durP1;ratioP1;P2;durP2;ratioP2
43560;SDS011;32305;46.410;17.394;2023-05-07T00:02:01;3.08;;;2.83;;
43560;SDS011;32305;46.410;17.394;2023-05-07T00:04:29;2.67;;;2.47;;
43560;SDS011;32305;46.410;17.394;2023-05-07T00:07:02;2.42;;;2.22;;
43560;SDS011;32305;46.410;17.394;2023-05-07T00:09:30;2.35;;;2.25;;
43560;SDS011;32305;46.410;17.394;2023-05-07T00:11:57;2.65;;;2.45;;
43560;SDS011;32305;46.410;17.394;2023-05-07T00:14:24;2.80;;;2.60;;
43560;SDS011;32305;46.410;17.394;2023-05-07T00:16:51;3.03;;;2.83;;
43560;SDS011;32305;46.410;17.394;2023-05-07T00:19:18;2.90;;;2.42;;
43560;SDS011;32305;46.410;17.394;2023-05-07T00:21:45;2.50;;;2.30;;
43560;SDS011;32305;46.410;17.394;2023-05-07T00:24:13;2.72;;;2.53;;
43560;SDS011;32305;46.410;17.394;2023-05-07T00:26:40;3.17;;;2.53;;
43560;SDS011;32305;46.410;17.394;2023-05-07T00:29:07;2.95;;;2.75;;
43560;SDS011;32305;46.410;17.394;2023-05-07T00:31:34;3.38;;;2.47;;
43560;SDS011;32305;46.410;17.394;2023-05-07T00:34:01;2.65;;;2.45;;
43560;SDS011;32305;46.410;17.394;2023-05-07T00:36:28;2.13;;;2.03;;
43560;SDS011;32305;46.410;17.394;2023-05-07T00:38:56;2.65;;;2.45;;
43560;SDS011;32305;46.410;17.394;2023-05-07T00:41:26;2.60;;;2.40;;
43560;SDS011;32305;46.410;17.394;2023-05-07T00:43:53;2.90;;;2.70;;
43560;SDS011;32305;46.410;17.394;2023-05-07T00:46:20;2.65;;;2.45;;
43560;SDS011;32305;46.410;17.394;2023-05-07T00:48:48;2.80;;;2.60;;
43560;SDS011;32305;46.410;17.394;2023-05-07T00:51:17;2.80;;;2.60;;
43560;SDS011;32305;46.410;17.394;2023-05-07T00:53:44;2.75;;;2.60;;
43560;SDS011;32305;46.410;17.394;2023-05-07T00:56:12;2.95;;;2.75;;
43560;SDS011;32305;46.410;17.394;2023-05-07T00:58:40;2.88;;;2.42;;
43560;SDS011;32305;46.410;17.394;2023-05-07T01:01:07;3.33;;;3.03;;
43560;SDS011;32305;46.410;17.394;2023-05-07T01:03:34;3.00;;;2.80;;
43560;SDS011;32305;46.410;17.394;2023-05-07T01:06:02;2.92;;;2.65;;
43560;SDS011;32305;46.410;17.394;2023-05-07T01:08:31;3.15;;;2.90;;
43560;SDS011;32305;46.410;17.394;2023-05-07T01:11:01;2.90;;;2.70;;
43560;SDS011;32305;46.410;17.394;2023-05-07T01:13:28;2.95;;;2.75;;
43560;SDS011;32305;46.410;17.394;2023-05-07T01:15:56;2.53;;;2.33;;
43560;SDS011;32305;46.410;17.394;2023-05-07T01:18:23;2.58;;;2.38;;
43560;SDS011;32305;46.410;17.394;2023-05-07T01:20:52;4.10;;;2.97;;
43560;SDS011;32305;46.410;17.394;2023-05-07T01:23:20;2.88;;;2.67;;
43560;SDS011;32305;46.410;17.394;2023-05-07T01:25:52;3.25;;;2.78;;
43560;SDS011;32305;46.410;17.394;2023-05-07T01:28:20;3.25;;;3.05;;
43560;SDS011;32305;46.410;17.394;2023-05-07T01:30:49;3.17;;;2.88;;
43560;SDS011;32305;46.410;17.394;2023-05-07T01:33:20;2.63;;;2.42;;
43560;SDS011;32305;46.410;17.394;2023-05-07T01:35:49;2.90;;;2.67;;
43560;SDS011;32305;46.410;17.394;2023-05-07T01:38:19;2.70;;;2.50;;
43560;SDS011;32305;46.410;17.394;2023-05-07T01:40:48;3.38;;;3.08;;
43560;SDS011;32305;46.410;17.394;2023-05-07T01:43:16;2.83;;;2.63;;
43560;SDS011;32305;46.410;17.394;2023-05-07T01:45:44;3.08;;;2.80;;
43560;SDS011;32305;46.410;17.394;2023-05-07T01:48:12;3.10;;;2.80;;
43560;SDS011;32305;46.410;17.394;2023-05-07T01:50:41;2.80;;;2.50;;
43560;SDS011;32305;46.410;17.394;2023-05-07T01:53:09;2.85;;;2.65;;
43560;SDS011;32305;46.410;17.394;2023-05-07T01:55:37;3.03;;;2.80;;
43560;SDS011;32305;46.410;17.394;2023-05-07T01:58:04;2.92;;;2.72;;
43560;SDS011;32305;46.410;17.394;2023-05-07T02:00:31;2.65;;;2.45;;
43560;SDS011;32305;46.410;17.394;2023-05-07T02:02:58;3.30;;;3.00;;
43560;SDS011;32305;46.410;17.394;2023-05-07T02:05:26;2.97;;;2.67;;
43560;SDS011;32305;46.410;17.394;2023-05-07T02:07:53;2.70;;;2.45;;
43560;SDS011;32305;46.410;17.394;2023-05-07T02:10:20;2.88;;;2.67;;
43560;SDS011;32305;46.410;17.394;2023-05-07T02:12:47;2.92;;;2.72;;
43560;SDS011;32305;46.410;17.394;2023-05-07T02:15:14;3.10;;;2.80;;
43560;SDS011;32305;46.410;17.394;2023-05-07T02:17:58;2.50;;;2.30;;
43560;SDS011;32305;46.410;17.394;2023-05-07T02:20:30;2.67;;;2.47;;
43560;SDS011;32305;46.410;17.394;2023-05-07T02:22:57;2.65;;;2.45;;
43560;SDS011;32305;46.410;17.394;2023-05-07T02:25:24;3.08;;;2.63;;
43560;SDS011;32305;46.410;17.394;2023-05-07T02:27:51;2.80;;;2.22;;
43560;SDS011;32305;46.410;17.394;2023-05-07T02:30:18;3.13;;;2.85;;
43560;SDS011;32305;46.410;17.394;2023-05-07T02:32:47;3.35;;;2.75;;
43560;SDS011;32305;46.410;17.394;2023-05-07T02:35:14;2.90;;;2.60;;
43560;SDS011;32305;46.410;17.394;2023-05-07T02:37:42;3.00;;;2.60;;
43560;SDS011;32305;46.410;17.394;2023-05-07T02:40:09;2.90;;;2.53;;
43560;SDS011;32305;46.410;17.394;2023-05-07T02:42:37;3.10;;;2.80;;
43560;SDS011;32305;46.410;17.394;2023-05-07T02:45:05;3.13;;;2.83;;
43560;SDS011;32305;46.410;17.394;2023-05-07T02:47:32;2.70;;;2.50;;
43560;SDS011;32305;46.410;17.394;2023-05-07T02:49:59;3.05;;;2.75;;
43560;SDS011;32305;46.410;17.394;2023-05-07T02:52:26;3.00;;;2.80;;
43560;SDS011;32305;46.410;17.394;2023-05-07T02:54:54;3.10;;;2.80;;
43560;SDS011;32305;46.410;17.394;2023-05-07T02:57:21;2.95;;;2.75;;
43560;SDS011;32305;46.410;17.394;2023-05-07T02:59:48;3.20;;;2.90;;
43560;SDS011;32305;46.410;17.394;2023-05-07T03:02:15;2.78;;;2.58;;
43560;SDS011;32305;46.410;17.394;2023-05-07T03:04:42;3.00;;;2.70;;
43560;SDS011;32305;46.410;17.394;2023-05-07T03:07:09;2.90;;;2.70;;
43560;SDS011;32305;46.410;17.394;2023-05-07T03:09:37;2.55;;;2.35;;
43560;SDS011;32305;46.410;17.394;2023-05-07T03:12:04;2.88;;;2.63;;
43560;SDS011;32305;46.410;17.394;2023-05-07T03:14:31;2.70;;;2.50;;
43560;SDS011;32305;46.410;17.394;2023-05-07T03:16:58;3.35;;;2.88;;
43560;SDS011;32305;46.410;17.394;2023-05-07T03:19:25;2.75;;;2.55;;
43560;SDS011;32305;46.410;17.394;2023-05-07T03:21:52;2.85;;;2.65;;
43560;SDS011;32305;46.410;17.394;2023-05-07T03:24:19;2.60;;;2.40;;
43560;SDS011;32305;46.410;17.394;2023-05-07T03:26:46;3.45;;;2.78;;
43560;SDS011;32305;46.410;17.394;2023-05-07T03:29:14;3.08;;;2.78;;
43560;SDS011;32305;46.410;17.394;2023-05-07T03:31:41;2.80;;;2.50;;
43560;SDS011;32305;46.410;17.394;2023-05-07T03:34:08;2.90;;;2.70;;
43560;SDS011;32305;46.410;17.394;2023-05-07T03:36:35;2.65;;;2.45;;
43560;SDS011;32305;46.410;17.394;2023-05-07T03:39:02;3.10;;;2.83;;
43560;SDS011;32305;46.410;17.394;2023-05-07T03:41:30;3.35;;;3.05;;
43560;SDS011;32305;46.410;17.394;2023-05-07T03:43:58;2.95;;;2.67;;
43560;SDS011;32305;46.410;17.394;2023-05-07T03:46:25;2.80;;;2.60;;
43560;SDS011;32305;46.410;17.394;2023-05-07T03:48:52;3.17;;;2.92;;
43560;SDS011;32305;46.410;17.394;2023-05-07T03:51:19;2.97;;;2.78;;
43560;SDS011;32305;46.410;17.394;2023-05-07T03:53:47;2.92;;;2.72;;
43560;SDS011;32305;46.410;17.394;2023-05-07T03:56:14;3.08;;;2.80;;
43560;SDS011;32305;46.410;17.394;2023-05-07T03:58:43;3.00;;;2.80;;
43560;SDS011;32305;46.410;17.394;2023-05-07T04:01:10;2.95;;;2.72;;
43560;SDS011;32305;46.410;17.394;2023-05-07T04:03:38;3.33;;;3.03;;
43560;SDS011;32305;46.410;17.394;2023-05-07T04:06:05;3.03;;;2.83;;
43560;SDS011;32305;46.410;17.394;2023-05-07T04:08:32;3.28;;;2.97;;
43560;SDS011;32305;46.410;17.394;2023-05-07T04:10:59;3.00;;;2.80;;
43560;SDS011;32305;46.410;17.394;2023-05-07T04:13:27;3.10;;;2.80;;
43560;SDS011;32305;46.410;17.394;2023-05-07T04:15:54;3.05;;;2.75;;
43560;SDS011;32305;46.410;17.394;2023-05-07T04:18:22;2.92;;;2.72;;
43560;SDS011;32305;46.410;17.394;2023-05-07T04:20:49;2.67;;;2.47;;
43560;SDS011;32305;46.410;17.394;2023-05-07T04:23:16;3.30;;;2.75;;
43560;SDS011;32305;46.410;17.394;2023-05-07T04:25:43;3.67;;;2.63;;
43560;SDS011;32305;46.410;17.394;2023-05-07T04:28:10;2.33;;;2.22;;
43560;SDS011;32305;46.410;17.394;2023-05-07T04:30:38;2.63;;;2.42;;
43560;SDS011;32305;46.410;17.394;2023-05-07T04:33:05;2.80;;;2.53;;
43560;SDS011;32305;46.410;17.394;2023-05-07T04:35:33;3.55;;;3.25;;
43560;SDS011;32305;46.410;17.394;2023-05-07T04:38:01;3.38;;;3.08;;
43560;SDS011;32305;46.410;17.394;2023-05-07T04:40:28;2.92;;;2.72;;
43560;SDS011;32305;46.410;17.394;2023-05-07T04:42:55;3.42;;;3.13;;
43560;SDS011;32305;46.410;17.394;2023-05-07T04:45:22;3.08;;;2.67;;
43560;SDS011;32305;46.410;17.394;2023-05-07T04:47:49;3.45;;;3.15;;
43560;SDS011;32305;46.410;17.394;2023-05-07T04:50:16;3.70;;;3.40;;
43560;SDS011;32305;46.410;17.394;2023-05-07T04:52:45;3.05;;;2.85;;
43560;SDS011;32305;46.410;17.394;2023-05-07T04:55:12;3.40;;;3.10;;
43560;SDS011;32305;46.410;17.394;2023-05-07T04:57:39;3.95;;;3.50;;
43560;SDS011;32305;46.410;17.394;2023-05-07T05:00:07;3.45;;;3.20;;
43560;SDS011;32305;46.410;17.394;2023-05-07T05:02:35;3.40;;;3.10;;
43560;SDS011;32305;46.410;17.394;2023-05-07T05:05:03;3.28;;;2.97;;
43560;SDS011;32305;46.410;17.394;2023-05-07T05:07:30;3.47;;;3.17;;
43560;SDS011;32305;46.410;17.394;2023-05-07T05:09:57;3.72;;;3.30;;
43560;SDS011;32305;46.410;17.394;2023-05-07T05:12:25;4.22;;;3.92;;
43560;SDS011;32305;46.410;17.394;2023-05-07T05:14:52;3.25;;;3.05;;
43560;SDS011;32305;46.410;17.394;2023-05-07T05:17:19;3.30;;;3.00;;
43560;SDS011;32305;46.410;17.394;2023-05-07T05:19:46;3.40;;;3.20;;
43560;SDS011;32305;46.410;17.394;2023-05-07T05:22:13;3.70;;;3.40;;
43560;SDS011;32305;46.410;17.394;2023-05-07T05:24:40;3.35;;;3.15;;
43560;SDS011;32305;46.410;17.394;2023-05-07T05:27:07;3.60;;;3.30;;
43560;SDS011;32305;46.410;17.394;2023-05-07T05:29:34;3.72;;;3.42;;
43560;SDS011;32305;46.410;17.394;2023-05-07T05:32:01;3.08;;;2.88;;
43560;SDS011;32305;46.410;17.394;2023-05-07T05:34:29;4.00;;;3.65;;
43560;SDS011;32305;46.410;17.394;2023-05-07T05:36:56;4.25;;;3.80;;
43560;SDS011;32305;46.410;17.394;2023-05-07T05:39:23;3.90;;;3.50;;
43560;SDS011;32305;46.410;17.394;2023-05-07T05:41:50;3.80;;;3.50;;
43560;SDS011;32305;46.410;17.394;2023-05-07T05:44:17;4.05;;;3.75;;
43560;SDS011;32305;46.410;17.394;2023-05-07T05:46:44;4.45;;;4.05;;
43560;SDS011;32305;46.410;17.394;2023-05-07T05:49:11;3.90;;;3.60;;
43560;SDS011;32305;46.410;17.394;2023-05-07T05:51:39;4.25;;;3.85;;
43560;SDS011;32305;46.410;17.394;2023-05-07T05:54:06;3.83;;;3.50;;
43560;SDS011;32305;46.410;17.394;2023-05-07T05:56:33;4.25;;;3.83;;
43560;SDS011;32305;46.410;17.394;2023-05-07T05:59:00;4.18;;;3.78;;
43560;SDS011;32305;46.410;17.394;2023-05-07T06:01:28;5.50;;;4.30;;
43560;SDS011;32305;46.410;17.394;2023-05-07T06:03:55;5.10;;;4.35;;
43560;SDS011;32305;46.410;17.394;2023-05-07T06:06:22;4.28;;;3.88;;
43560;SDS011;32305;46.410;17.394;2023-05-07T06:08:49;4.50;;;4.10;;
43560;SDS011;32305;46.410;17.394;2023-05-07T06:11:17;5.15;;;4.57;;
43560;SDS011;32305;46.410;17.394;2023-05-07T06:13:44;4.57;;;4.18;;
43560;SDS011;32305;46.410;17.394;2023-05-07T06:16:11;4.05;;;3.70;;
43560;SDS011;32305;46.410;17.394;2023-05-07T06:18:38;5.10;;;4.40;;
43560;SDS011;32305;46.410;17.394;2023-05-07T06:21:05;4.25;;;3.85;;
43560;SDS011;32305;46.410;17.394;2023-05-07T06:23:32;4.10;;;3.80;;
43560;SDS011;32305;46.410;17.394;2023-05-07T06:25:59;4.10;;;3.70;;
43560;SDS011;32305;46.410;17.394;2023-05-07T06:28:26;4.82;;;4.43;;
43560;SDS011;32305;46.410;17.394;2023-05-07T06:30:53;4.10;;;3.70;;
43560;SDS011;32305;46.410;17.394;2023-05-07T06:33:21;5.28;;;4.20;;
43560;SDS011;32305;46.410;17.394;2023-05-07T06:35:48;3.90;;;3.60;;
43560;SDS011;32305;46.410;17.394;2023-05-07T06:38:15;4.07;;;3.67;;
43560;SDS011;32305;46.410;17.394;2023-05-07T06:40:42;4.18;;;3.78;;
43560;SDS011;32305;46.410;17.394;2023-05-07T06:43:09;3.92;;;3.63;;
43560;SDS011;32305;46.410;17.394;2023-05-07T06:45:37;3.72;;;3.42;;
43560;SDS011;32305;46.410;17.394;2023-05-07T06:48:04;3.80;;;3.50;;
43560;SDS011;32305;46.410;17.394;2023-05-07T06:50:31;3.67;;;3.22;;
43560;SDS011;32305;46.410;17.394;2023-05-07T06:52:58;3.78;;;3.47;;
43560;SDS011;32305;46.410;17.394;2023-05-07T06:55:26;3.97;;;3.67;;
43560;SDS011;32305;46.410;17.394;2023-05-07T06:57:53;3.60;;;3.30;;
43560;SDS011;32305;46.410;17.394;2023-05-07T07:00:20;3.30;;;3.10;;
43560;SDS011;32305;46.410;17.394;2023-05-07T07:02:47;4.57;;;3.20;;
43560;SDS011;32305;46.410;17.394;2023-05-07T07:05:14;4.13;;;3.72;;
43560;SDS011;32305;46.410;17.394;2023-05-07T07:07:42;4.13;;;3.65;;
43560;SDS011;32305;46.410;17.394;2023-05-07T07:10:09;3.60;;;3.30;;
43560;SDS011;32305;46.410;17.394;2023-05-07T07:12:36;3.92;;;3.53;;
43560;SDS011;32305;46.410;17.394;2023-05-07T07:15:03;3.40;;;3.20;;
43560;SDS011;32305;46.410;17.394;2023-05-07T07:17:31;3.92;;;3.60;;
43560;SDS011;32305;46.410;17.394;2023-05-07T07:19:58;3.28;;;3.00;;
43560;SDS011;32305;46.410;17.394;2023-05-07T07:22:25;3.92;;;3.63;;
43560;SDS011;32305;46.410;17.394;2023-05-07T07:24:52;3.42;;;3.22;;
43560;SDS011;32305;46.410;17.394;2023-05-07T07:27:19;3.88;;;3.47;;
43560;SDS011;32305;46.410;17.394;2023-05-07T07:29:46;4.50;;;3.63;;
43560;SDS011;32305;46.410;17.394;2023-05-07T07:32:14;4.25;;;3.25;;
43560;SDS011;32305;46.410;17.394;2023-05-07T07:34:41;3.92;;;3.60;;
43560;SDS011;32305;46.410;17.394;2023-05-07T07:37:08;4.55;;;4.05;;
43560;SDS011;32305;46.410;17.394;2023-05-07T07:39:35;4.13;;;3.72;;
43560;SDS011;32305;46.410;17.394;2023-05-07T07:42:04;3.70;;;3.40;;
43560;SDS011;32305;46.410;17.394;2023-05-07T07:44:31;3.33;;;3.13;;
43560;SDS011;32305;46.410;17.394;2023-05-07T07:46:58;3.53;;;3.22;;
43560;SDS011;32305;46.410;17.394;2023-05-07T07:49:25;3.30;;;3.10;;
43560;SDS011;32305;46.410;17.394;2023-05-07T07:51:53;3.53;;;3.22;;
43560;SDS011;32305;46.410;17.394;2023-05-07T07:54:20;4.07;;;3.67;;
43560;SDS011;32305;46.410;17.394;2023-05-07T07:56:47;3.63;;;3.33;;
43560;SDS011;32305;46.410;17.394;2023-05-07T07:59:14;3.17;;;2.97;;
43560;SDS011;32305;46.410;17.394;2023-05-07T08:01:45;4.00;;;3.58;;
43560;SDS011;32305;46.410;17.394;2023-05-07T08:04:14;3.47;;;2.90;;
43560;SDS011;32305;46.410;17.394;2023-05-07T08:06:42;3.75;;;3.45;;
43560;SDS011;32305;46.410;17.394;2023-05-07T08:09:09;3.63;;;3.33;;
43560;SDS011;32305;46.410;17.394;2023-05-07T08:11:36;3.05;;;2.80;;
43560;SDS011;32305;46.410;17.394;2023-05-07T08:14:03;4.05;;;3.05;;
43560;SDS011;32305;46.410;17.394;2023-05-07T08:16:30;3.30;;;3.00;;
43560;SDS011;32305;46.410;17.394;2023-05-07T08:18:57;3.20;;;2.92;;
43560;SDS011;32305;46.410;17.394;2023-05-07T08:21:24;3.13;;;2.92;;
43560;SDS011;32305;46.410;17.394;2023-05-07T08:23:52;3.00;;;2.80;;
43560;SDS011;32305;46.410;17.394;2023-05-07T08:26:19;3.13;;;2.83;;
43560;SDS011;32305;46.410;17.394;2023-05-07T08:28:46;3.30;;;3.10;;
43560;SDS011;32305;46.410;17.394;2023-05-07T08:31:13;3.45;;;3.20;;
43560;SDS011;32305;46.410;17.394;2023-05-07T08:33:41;3.20;;;2.97;;
43560;SDS011;32305;46.410;17.394;2023-05-07T08:36:08;2.70;;;2.50;;
43560;SDS011;32305;46.410;17.394;2023-05-07T08:38:35;2.97;;;2.78;;
43560;SDS011;32305;46.410;17.394;2023-05-07T08:41:02;3.20;;;3.00;;
43560;SDS011;32305;46.410;17.394;2023-05-07T08:43:29;3.30;;;3.00;;
43560;SDS011;32305;46.410;17.394;2023-05-07T08:45:59;2.97;;;2.78;;
43560;SDS011;32305;46.410;17.394;2023-05-07T08:48:29;4.30;;;2.58;;
43560;SDS011;32305;46.410;17.394;2023-05-07T08:50:57;3.78;;;2.65;;
43560;SDS011;32305;46.410;17.394;2023-05-07T08:53:25;3.22;;;3.03;;
43560;SDS011;32305;46.410;17.394;2023-05-07T08:55:52;2.58;;;2.47;;
43560;SDS011;32305;46.410;17.394;2023-05-07T08:58:20;2.72;;;2.53;;
43560;SDS011;32305;46.410;17.394;2023-05-07T09:00:47;2.75;;;2.55;;
43560;SDS011;32305;46.410;17.394;2023-05-07T09:03:14;3.00;;;2.80;;
43560;SDS011;32305;46.410;17.394;2023-05-07T09:05:41;2.63;;;2.42;;
43560;SDS011;32305;46.410;17.394;2023-05-07T09:08:10;2.28;;;2.17;;
43560;SDS011;32305;46.410;17.394;2023-05-07T09:10:41;2.80;;;2.60;;
43560;SDS011;32305;46.410;17.394;2023-05-07T09:13:08;3.28;;;2.97;;
43560;SDS011;32305;46.410;17.394;2023-05-07T09:15:37;2.92;;;2.72;;
43560;SDS011;32305;46.410;17.394;2023-05-07T09:18:04;3.00;;;2.80;;
43560;SDS011;32305;46.410;17.394;2023-05-07T09:20:31;3.03;;;2.75;;
43560;SDS011;32305;46.410;17.394;2023-05-07T09:22:58;3.75;;;2.97;;
43560;SDS011;32305;46.410;17.394;2023-05-07T09:25:29;3.25;;;2.95;;
43560;SDS011;32305;46.410;17.394;2023-05-07T09:27:57;3.42;;;3.13;;
43560;SDS011;32305;46.410;17.394;2023-05-07T09:30:28;2.67;;;2.50;;
43560;SDS011;32305;46.410;17.394;2023-05-07T09:32:57;3.30;;;3.08;;
43560;SDS011;32305;46.410;17.394;2023-05-07T09:35:26;2.53;;;2.40;;
43560;SDS011;32305;46.410;17.394;2023-05-07T09:37:57;3.05;;;2.85;;
43560;SDS011;32305;46.410;17.394;2023-05-07T09:40:30;2.80;;;2.60;;
43560;SDS011;32305;46.410;17.394;2023-05-07T09:43:08;3.10;;;2.90;;
43560;SDS011;32305;46.410;17.394;2023-05-07T09:45:36;2.90;;;2.70;;
43560;SDS011;32305;46.410;17.394;2023-05-07T09:48:05;2.58;;;2.38;;
43560;SDS011;32305;46.410;17.394;2023-05-07T09:50:38;2.55;;;2.38;;
43560;SDS011;32305;46.410;17.394;2023-05-07T09:53:14;2.90;;;2.70;;
43560;SDS011;32305;46.410;17.394;2023-05-07T09:55:42;2.85;;;2.65;;
43560;SDS011;32305;46.410;17.394;2023-05-07T09:58:11;2.67;;;2.47;;
43560;SDS011;32305;46.410;17.394;2023-05-07T10:00:41;2.42;;;2.22;;
43560;SDS011;32305;46.410;17.394;2023-05-07T10:03:09;2.42;;;2.33;;
43560;SDS011;32305;46.410;17.394;2023-05-07T10:05:37;2.78;;;2.55;;
43560;SDS011;32305;46.410;17.394;2023-05-07T10:08:06;3.17;;;2.97;;
43560;SDS011;32305;46.410;17.394;2023-05-07T10:10:34;3.00;;;2.80;;
43560;SDS011;32305;46.410;17.394;2023-05-07T10:13:02;5.28;;;2.85;;
43560;SDS011;32305;46.410;17.394;2023-05-07T10:15:32;2.50;;;2.25;;
43560;SDS011;32305;46.410;17.394;2023-05-07T10:18:00;2.60;;;2.40;;
43560;SDS011;32305;46.410;17.394;2023-05-07T10:20:30;2.72;;;2.53;;
43560;SDS011;32305;46.410;17.394;2023-05-07T10:22:59;2.30;;;2.20;;
43560;SDS011;32305;46.410;17.394;2023-05-07T10:25:31;2.72;;;2.53;;
43560;SDS011;32305;46.410;17.394;2023-05-07T10:27:59;2.80;;;2.60;;
43560;SDS011;32305;46.410;17.394;2023-05-07T10:30:35;2.70;;;2.50;;
43560;SDS011;32305;46.410;17.394;2023-05-07T10:33:15;2.40;;;2.22;;
43560;SDS011;32305;46.410;17.394;2023-05-07T10:35:45;2.45;;;2.30;;
43560;SDS011;32305;46.410;17.394;2023-05-07T10:38:14;2.80;;;2.60;;
43560;SDS011;32305;46.410;17.394;2023-05-07T10:40:41;3.58;;;2.28;;
43560;SDS011;32305;46.410;17.394;2023-05-07T10:43:08;2.72;;;2.53;;
43560;SDS011;32305;46.410;17.394;2023-05-07T10:45:36;2.60;;;2.40;;
43560;SDS011;32305;46.410;17.394;2023-05-07T10:48:07;2.85;;;2.17;;
43560;SDS011;32305;46.410;17.394;2023-05-07T10:53:40;2.70;;;2.45;;
43560;SDS011;32305;46.410;17.394;2023-05-07T10:56:29;2.38;;;2.20;;
43560;SDS011;32305;46.410;17.394;2023-05-07T10:58:54;2.65;;;2.45;;
43560;SDS011;32305;46.410;17.394;2023-05-07T11:04:17;2.63;;;2.42;;
43560;SDS011;32305;46.410;17.394;2023-05-07T11:09:59;2.35;;;2.25;;
43560;SDS011;32305;46.410;17.394;2023-05-07T11:15:33;2.67;;;2.47;;
43560;SDS011;32305;46.410;17.394;2023-05-07T11:18:02;2.05;;;1.95;;
43560;SDS011;32305;46.410;17.394;2023-05-07T11:20:47;2.35;;;2.20;;
43560;SDS011;32305;46.410;17.394;2023-05-07T11:26:23;2.30;;;2.20;;
43560;SDS011;32305;46.410;17.394;2023-05-07T11:28:50;2.30;;;2.20;;
43560;SDS011;32305;46.410;17.394;2023-05-07T11:31:22;2.42;;;2.22;;
43560;SDS011;32305;46.410;17.394;2023-05-07T11:33:51;2.70;;;2.55;;
43560;SDS011;32305;46.410;17.394;2023-05-07T11:36:21;2.70;;;2.50;;
43560;SDS011;32305;46.410;17.394;2023-05-07T11:38:49;2.67;;;2.47;;
43560;SDS011;32305;46.410;17.394;2023-05-07T11:41:16;2.53;;;2.33;;
43560;SDS011;32305;46.410;17.394;2023-05-07T11:43:54;2.63;;;2.47;;
43560;SDS011;32305;46.410;17.394;2023-05-07T11:46:26;2.85;;;2.55;;
43560;SDS011;32305;46.410;17.394;2023-05-07T11:48:54;2.58;;;2.38;;
43560;SDS011;32305;46.410;17.394;2023-05-07T11:51:23;2.08;;;1.98;;
43560;SDS011;32305;46.410;17.394;2023-05-07T11:53:52;2.55;;;2.35;;
43560;SDS011;32305;46.410;17.394;2023-05-07T11:56:20;2.58;;;2.47;;
43560;SDS011;32305;46.410;17.394;2023-05-07T11:58:47;2.67;;;2.47;;
43560;SDS011;32305;46.410;17.394;2023-05-07T12:01:16;2.45;;;2.35;;
43560;SDS011;32305;46.410;17.394;2023-05-07T12:03:43;2.53;;;2.35;;
43560;SDS011;32305;46.410;17.394;2023-05-07T12:06:15;2.30;;;2.17;;
43560;SDS011;32305;46.410;17.394;2023-05-07T12:08:44;2.60;;;2.40;;
43560;SDS011;32305;46.410;17.394;2023-05-07T12:11:21;2.25;;;2.15;;
43560;SDS011;32305;46.410;17.394;2023-05-07T12:13:50;2.10;;;2.00;;
43560;SDS011;32305;46.410;17.394;2023-05-07T12:16:17;2.38;;;2.25;;
43560;SDS011;32305;46.410;17.394;2023-05-07T12:18:45;2.10;;;2.00;;
43560;SDS011;32305;46.410;17.394;2023-05-07T12:21:13;2.50;;;2.30;;
43560;SDS011;32305;46.410;17.394;2023-05-07T12:23:41;2.60;;;2.40;;
43560;SDS011;32305;46.410;17.394;2023-05-07T12:26:08;2.35;;;2.25;;
43560;SDS011;32305;46.410;17.394;2023-05-07T12:28:36;2.83;;;2.63;;
43560;SDS011;32305;46.410;17.394;2023-05-07T12:31:07;1.88;;;1.77;;
43560;SDS011;32305;46.410;17.394;2023-05-07T12:33:35;2.38;;;2.28;;
43560;SDS011;32305;46.410;17.394;2023-05-07T12:36:03;2.10;;;2.00;;
43560;SDS011;32305;46.410;17.394;2023-05-07T12:38:40;3.03;;;2.20;;
43560;SDS011;32305;46.410;17.394;2023-05-07T12:41:07;2.30;;;2.20;;
43560;SDS011;32305;46.410;17.394;2023-05-07T12:43:36;2.90;;;2.70;;
43560;SDS011;32305;46.410;17.394;2023-05-07T12:46:05;2.80;;;2.60;;
43560;SDS011;32305;46.410;17.394;2023-05-07T12:48:33;2.45;;;2.35;;
43560;SDS011;32305;46.410;17.394;2023-05-07T12:51:02;2.33;;;2.13;;
43560;SDS011;32305;46.410;17.394;2023-05-07T12:53:29;2.50;;;2.17;;
43560;SDS011;32305;46.410;17.394;2023-05-07T12:55:58;2.40;;;2.30;;
43560;SDS011;32305;46.410;17.394;2023-05-07T12:58:27;2.70;;;2.50;;
43560;SDS011;32305;46.410;17.394;2023-05-07T13:00:57;2.45;;;2.35;;
43560;SDS011;32305;46.410;17.394;2023-05-07T13:03:31;2.88;;;2.67;;
43560;SDS011;32305;46.410;17.394;2023-05-07T13:06:00;2.40;;;2.25;;
43560;SDS011;32305;46.410;17.394;2023-05-07T13:08:33;2.60;;;2.40;;
43560;SDS011;32305;46.410;17.394;2023-05-07T13:11:03;2.90;;;2.70;;
43560;SDS011;32305;46.410;17.394;2023-05-07T13:13:31;2.42;;;2.22;;
43560;SDS011;32305;46.410;17.394;2023-05-07T13:15:59;2.78;;;2.58;;
43560;SDS011;32305;46.410;17.394;2023-05-07T13:18:29;2.22;;;2.08;;
43560;SDS011;32305;46.410;17.394;2023-05-07T13:20:58;2.65;;;2.45;;
43560;SDS011;32305;46.410;17.394;2023-05-07T13:23:26;2.83;;;2.60;;
43560;SDS011;32305;46.410;17.394;2023-05-07T13:25:54;2.85;;;2.65;;
43560;SDS011;32305;46.410;17.394;2023-05-07T13:28:22;2.40;;;2.30;;
43560;SDS011;32305;46.410;17.394;2023-05-07T13:30:50;3.03;;;2.83;;
43560;SDS011;32305;46.410;17.394;2023-05-07T13:33:18;2.65;;;2.47;;
43560;SDS011;32305;46.410;17.394;2023-05-07T13:35:47;2.50;;;2.40;;
43560;SDS011;32305;46.410;17.394;2023-05-07T13:38:14;2.65;;;2.50;;
43560;SDS011;32305;46.410;17.394;2023-05-07T13:40:42;3.25;;;2.50;;
43560;SDS011;32305;46.410;17.394;2023-05-07T13:43:09;2.88;;;2.67;;
43560;SDS011;32305;46.410;17.394;2023-05-07T13:45:37;3.70;;;2.63;;
43560;SDS011;32305;46.410;17.394;2023-05-07T13:48:04;2.53;;;2.38;;
43560;SDS011;32305;46.410;17.394;2023-05-07T13:50:31;2.97;;;2.78;;
43560;SDS011;32305;46.410;17.394;2023-05-07T13:52:58;2.60;;;2.40;;
43560;SDS011;32305;46.410;17.394;2023-05-07T13:55:28;3.40;;;2.30;;
43560;SDS011;32305;46.410;17.394;2023-05-07T13:57:59;2.90;;;2.70;;
43560;SDS011;32305;46.410;17.394;2023-05-07T14:00:27;2.58;;;2.38;;
43560;SDS011;32305;46.410;17.394;2023-05-07T14:02:55;2.78;;;2.58;;
43560;SDS011;32305;46.410;17.394;2023-05-07T14:05:23;2.60;;;2.50;;
43560;SDS011;32305;46.410;17.394;2023-05-07T14:07:51;2.60;;;2.40;;
43560;SDS011;32305;46.410;17.394;2023-05-07T14:10:18;2.83;;;2.63;;
43560;SDS011;32305;46.410;17.394;2023-05-07T14:12:46;3.03;;;2.72;;
43560;SDS011;32305;46.410;17.394;2023-05-07T14:15:14;2.72;;;2.53;;
43560;SDS011;32305;46.410;17.394;2023-05-07T14:17:42;2.90;;;2.60;;
43560;SDS011;32305;46.410;17.394;2023-05-07T14:20:10;2.53;;;2.38;;
43560;SDS011;32305;46.410;17.394;2023-05-07T14:22:39;2.88;;;2.67;;
43560;SDS011;32305;46.410;17.394;2023-05-07T14:25:06;2.40;;;2.30;;
43560;SDS011;32305;46.410;17.394;2023-05-07T14:27:36;2.42;;;2.33;;
43560;SDS011;32305;46.410;17.394;2023-05-07T14:30:03;3.00;;;2.65;;
43560;SDS011;32305;46.410;17.394;2023-05-07T14:32:31;2.83;;;2.40;;
43560;SDS011;32305;46.410;17.394;2023-05-07T14:34:59;2.80;;;2.60;;
43560;SDS011;32305;46.410;17.394;2023-05-07T14:37:26;2.22;;;2.13;;
43560;SDS011;32305;46.410;17.394;2023-05-07T14:39:54;2.90;;;2.15;;
43560;SDS011;32305;46.410;17.394;2023-05-07T14:42:21;2.70;;;2.50;;
43560;SDS011;32305;46.410;17.394;2023-05-07T14:44:48;2.38;;;2.28;;
43560;SDS011;32305;46.410;17.394;2023-05-07T14:47:15;2.53;;;2.42;;
43560;SDS011;32305;46.410;17.394;2023-05-07T14:49:45;2.88;;;2.67;;
43560;SDS011;32305;46.410;17.394;2023-05-07T14:52:12;2.35;;;2.00;;
43560;SDS011;32305;46.410;17.394;2023-05-07T14:54:39;2.40;;;2.25;;